createdAt,value
2019-02-17T00:01:09.195Z,1.58
2019-02-17T00:02:19.112Z,1.68
2019-02-17T00:03:29.086Z,1.68
2019-02-17T00:04:39.011Z,1.64
2019-02-17T00:05:48.931Z,1.7
2019-02-17T00:06:58.902Z,1.6
2019-02-17T00:08:08.819Z,1.58
2019-02-17T00:09:18.735Z,1.57
2019-02-17T00:10:28.663Z,1.58
2019-02-17T00:11:38.395Z,1.58
2019-02-17T00:12:48.310Z,1.58
2019-02-17T00:13:58.224Z,1.6
2019-02-17T00:15:08.249Z,1.6
2019-02-17T00:16:18.179Z,1.58
2019-02-17T00:17:28.130Z,1.56
2019-02-17T00:18:38.050Z,1.56
2019-02-17T00:19:47.975Z,1.52
2019-02-17T00:20:57.993Z,1.5
2019-02-17T00:22:07.909Z,1.49
2019-02-17T00:23:17.822Z,1.46
2019-02-17T00:24:27.742Z,1.5
2019-02-17T00:25:37.656Z,1.5
2019-02-17T00:26:47.580Z,1.45
2019-02-17T00:27:57.499Z,1.48
2019-02-17T00:29:07.432Z,1.45
2019-02-17T00:30:17.350Z,1.46
2019-02-17T00:31:27.270Z,1.42
2019-02-17T00:32:37.187Z,1.45
2019-02-17T00:33:47.103Z,1.5
2019-02-17T00:34:57.034Z,1.46
2019-02-17T00:36:06.952Z,1.49
2019-02-17T00:37:16.873Z,1.42
2019-02-17T00:38:26.805Z,1.45
2019-02-17T00:39:36.727Z,1.42
2019-02-17T00:40:46.650Z,1.48
2019-02-17T00:41:56.575Z,1.4
2019-02-17T00:43:06.518Z,1.43
2019-02-17T00:44:16.538Z,1.49
2019-02-17T00:45:26.517Z,1.45
2019-02-17T00:46:36.432Z,1.36
2019-02-17T00:47:46.361Z,1.4
2019-02-17T00:48:56.292Z,1.46
2019-02-17T00:50:06.263Z,1.36
2019-02-17T00:51:16.185Z,1.38
2019-02-17T00:52:26.103Z,1.39
2019-02-17T00:53:36.024Z,1.43
2019-02-17T00:54:45.943Z,1.36
2019-02-17T00:55:55.964Z,1.3
2019-02-17T00:57:05.882Z,1.39
2019-02-17T00:58:15.812Z,1.27
2019-02-17T00:59:25.728Z,1.38
2019-02-17T01:00:35.675Z,1.32
2019-02-17T01:01:45.650Z,1.31
2019-02-17T01:02:55.567Z,1.21
2019-02-17T01:04:05.488Z,1.18
2019-02-17T01:05:15.410Z,1.07
2019-02-17T01:06:25.160Z,1.06
2019-02-17T01:07:35.178Z,1.03
2019-02-17T01:08:44.862Z,1.02
2019-02-17T01:09:54.787Z,1.03
2019-02-17T01:11:04.703Z,1.02
2019-02-17T01:12:14.627Z,0.99
2019-02-17T01:13:24.647Z,0.99
2019-02-17T01:14:34.567Z,1
2019-02-17T01:15:44.486Z,1.06
2019-02-17T01:16:54.413Z,1.02
2019-02-17T01:18:04.089Z,1.12
2019-02-17T01:19:14.117Z,1.1
2019-02-17T01:20:24.039Z,1.12
2019-02-17T01:21:33.959Z,1.14
2019-02-17T01:22:43.877Z,1.07
2019-02-17T01:23:53.805Z,1.1
2019-02-17T01:25:03.486Z,1.09
2019-02-17T01:26:13.405Z,1.02
2019-02-17T01:27:23.341Z,1.07
2019-02-17T01:28:33.268Z,0.96
2019-02-17T01:29:42.942Z,0.95
2019-02-17T01:30:52.863Z,0.91
2019-02-17T01:32:02.781Z,0.92
2019-02-17T01:33:12.698Z,0.81
2019-02-17T01:34:22.623Z,0.89
2019-02-17T01:35:32.297Z,0.86
2019-02-17T01:36:41.970Z,0.85
2019-02-17T01:37:51.891Z,0.88
2019-02-17T01:39:03.529Z,0.81
2019-02-17T01:40:13.446Z,0.82
2019-02-17T01:41:23.366Z,0.88
2019-02-17T01:42:33.388Z,0.88
2019-02-17T01:43:43.316Z,0.76
2019-02-17T01:44:53.236Z,0.96
2019-02-17T01:46:03.150Z,1
2019-02-17T01:47:13.069Z,0.95
2019-02-17T01:48:23.094Z,0.99
2019-02-17T01:49:33.011Z,0.92
2019-02-17T01:50:42.683Z,0.95
2019-02-17T01:51:52.597Z,0.88
2019-02-17T01:53:02.552Z,0.92
2019-02-17T01:54:12.582Z,0.84
2019-02-17T01:55:22.564Z,0.91
2019-02-17T01:56:32.563Z,0.88
2019-02-17T01:57:42.551Z,0.86
2019-02-17T01:58:52.537Z,0.88
2019-02-17T02:00:02.809Z,0.88
2019-02-17T02:01:12.796Z,0.91
2019-02-17T02:02:24.856Z,0.85
2019-02-17T02:03:34.834Z,0.77
2019-02-17T02:04:44.780Z,0.84
2019-02-17T02:05:54.839Z,0.85
2019-02-17T02:07:04.802Z,0.82
2019-02-17T02:08:14.763Z,0.91
2019-02-17T02:09:24.732Z,0.92
2019-02-17T02:10:34.704Z,0.95
2019-02-17T02:11:44.751Z,1
2019-02-17T02:12:54.431Z,1.02
2019-02-17T02:14:06.333Z,0.99
2019-02-17T02:15:16.434Z,0.95
2019-02-17T02:16:26.378Z,1
2019-02-17T02:17:36.477Z,0.96
2019-02-17T02:18:46.481Z,1.02
2019-02-17T02:19:56.409Z,1.03
2019-02-17T02:21:06.325Z,0.99
2019-02-17T02:22:16.240Z,1.03
2019-02-17T02:23:26.277Z,1
2019-02-17T02:24:36.196Z,0.96
2019-02-17T02:25:46.181Z,0.99
2019-02-17T02:26:56.097Z,0.91
2019-02-17T02:28:06.028Z,0.85
2019-02-17T02:29:16.005Z,0.94
2019-02-17T02:30:25.941Z,0.86
2019-02-17T02:31:35.931Z,0.85
2019-02-17T02:32:45.903Z,0.92
2019-02-17T02:33:55.826Z,0.89
2019-02-17T02:35:05.847Z,0.78
2019-02-17T02:36:15.518Z,0.77
2019-02-17T02:37:25.455Z,0.82
2019-02-17T02:38:35.133Z,0.81
2019-02-17T02:39:44.810Z,0.74
2019-02-17T02:40:54.736Z,0.73
2019-02-17T02:42:04.673Z,0.66
2019-02-17T02:43:14.594Z,0.63
2019-02-17T02:44:24.533Z,0.7
2019-02-17T02:45:34.463Z,0.76
2019-02-17T02:46:44.403Z,0.55
2019-02-17T02:47:54.337Z,0.58
2019-02-17T02:49:04.265Z,0.64
2019-02-17T02:50:14.201Z,0.59
2019-02-17T02:51:24.228Z,0.67
2019-02-17T02:52:34.179Z,0.64
2019-02-17T02:53:44.112Z,0.63
2019-02-17T02:54:54.043Z,0.66
2019-02-17T02:56:03.727Z,0.58
2019-02-17T02:57:13.650Z,0.59
2019-02-17T02:58:23.582Z,0.66
2019-02-17T02:59:33.572Z,0.63
2019-02-17T03:00:43.500Z,0.66
2019-02-17T03:01:53.423Z,0.56
2019-02-17T03:03:03.351Z,0.67
2019-02-17T03:04:13.422Z,0.74
2019-02-17T03:05:23.350Z,0.66
2019-02-17T03:06:33.285Z,0.63
2019-02-17T03:07:43.218Z,0.56
2019-02-17T03:08:53.143Z,0.59
2019-02-17T03:10:03.178Z,0.58
2019-02-17T03:11:13.115Z,0.55
2019-02-17T03:12:23.043Z,0.49
2019-02-17T03:13:32.973Z,0.49
2019-02-17T03:14:42.904Z,0.48
2019-02-17T03:15:52.835Z,0.51
2019-02-17T03:17:05.525Z,0.48
2019-02-17T03:18:15.450Z,0.44
2019-02-17T03:19:25.370Z,0.45
2019-02-17T03:20:35.298Z,0.44
2019-02-17T03:21:45.276Z,0.45
2019-02-17T03:22:54.959Z,0.47
2019-02-17T03:24:04.964Z,0.48
2019-02-17T03:25:14.900Z,0.31
2019-02-17T03:26:24.833Z,0.36
2019-02-17T03:27:34.750Z,0.42
2019-02-17T03:28:44.671Z,0.31
2019-02-17T03:30:06.815Z,0.31
2019-02-17T03:31:16.764Z,0.33
2019-02-17T03:32:26.735Z,0.33
2019-02-17T03:33:36.680Z,0.31
2019-02-17T03:34:46.614Z,0.33
2019-02-17T03:35:56.537Z,0.26
2019-02-17T03:37:06.466Z,0.33
2019-02-17T03:38:16.245Z,0.29
2019-02-17T03:39:25.911Z,0.24
2019-02-17T03:40:35.831Z,0.27
2019-02-17T03:41:45.763Z,0.3
2019-02-17T03:42:55.695Z,0.33
2019-02-17T03:44:05.671Z,0.27
2019-02-17T03:45:15.606Z,0.33
2019-02-17T03:46:25.529Z,0.44
2019-02-17T03:47:35.447Z,0.42
2019-02-17T03:48:45.382Z,0.52
2019-02-17T03:49:55.402Z,0.45
2019-02-17T03:51:05.500Z,0.49
2019-02-17T03:52:15.429Z,0.48
2019-02-17T03:53:25.358Z,0.55
2019-02-17T03:54:35.026Z,0.61
2019-02-17T03:55:45.049Z,0.59
2019-02-17T03:56:54.967Z,0.63
2019-02-17T03:58:04.642Z,0.66
2019-02-17T03:59:14.599Z,0.59
2019-02-17T04:00:24.536Z,0.64
2019-02-17T04:01:34.508Z,0.56
2019-02-17T04:02:44.183Z,0.64
2019-02-17T04:03:54.200Z,0.67
2019-02-17T04:05:04.134Z,0.58
2019-02-17T04:06:14.050Z,0.61
2019-02-17T04:07:24.088Z,0.64
2019-02-17T04:08:34.034Z,0.7
2019-02-17T04:09:43.962Z,0.59
2019-02-17T04:10:53.885Z,0.63
2019-02-17T04:12:03.800Z,0.68
2019-02-17T04:13:13.770Z,0.67
2019-02-17T04:14:23.693Z,0.7
2019-02-17T04:15:33.617Z,0.67
2019-02-17T04:16:43.552Z,0.7
2019-02-17T04:17:53.474Z,0.61
2019-02-17T04:19:03.550Z,0.7
2019-02-17T04:20:13.468Z,0.68
2019-02-17T04:21:23.502Z,0.68
2019-02-17T04:22:33.428Z,0.68
2019-02-17T04:23:43.394Z,0.74
2019-02-17T04:24:53.432Z,0.71
2019-02-17T04:26:03.373Z,0.74
2019-02-17T04:27:13.301Z,0.66
2019-02-17T04:28:22.978Z,0.68
2019-02-17T04:29:32.916Z,0.7
2019-02-17T04:30:43.079Z,0.7
2019-02-17T04:31:53.029Z,0.67
2019-02-17T04:33:02.970Z,0.7
2019-02-17T04:34:12.904Z,0.66
2019-02-17T04:35:22.845Z,0.77
2019-02-17T04:36:32.814Z,0.67
2019-02-17T04:37:42.768Z,0.7
2019-02-17T04:38:52.693Z,0.71
2019-02-17T04:40:02.813Z,0.7
2019-02-17T04:41:12.751Z,0.7
2019-02-17T04:42:22.784Z,0.7
2019-02-17T04:43:32.710Z,0.64
2019-02-17T04:44:42.630Z,0.68
2019-02-17T04:45:52.589Z,0.67
2019-02-17T04:47:02.525Z,0.7
2019-02-17T04:48:12.549Z,0.77
2019-02-17T04:49:22.470Z,0.74
2019-02-17T04:50:32.450Z,0.78
2019-02-17T04:51:42.389Z,0.73
2019-02-17T04:52:52.314Z,0.7
2019-02-17T04:54:02.242Z,0.71
2019-02-17T04:55:12.164Z,0.76
2019-02-17T04:56:22.086Z,0.74
2019-02-17T04:57:32.004Z,0.71
2019-02-17T04:58:41.932Z,0.73
2019-02-17T04:59:51.864Z,0.73
2019-02-17T05:01:01.946Z,0.68
2019-02-17T05:02:11.635Z,0.73
2019-02-17T05:03:21.568Z,0.71
2019-02-17T05:04:31.621Z,0.74
2019-02-17T05:05:41.646Z,0.68
2019-02-17T05:06:51.602Z,0.66
2019-02-17T05:08:01.563Z,0.68
2019-02-17T05:09:11.505Z,0.73
2019-02-17T05:10:21.434Z,0.71
2019-02-17T05:11:31.465Z,0.84
2019-02-17T05:12:41.396Z,0.77
2019-02-17T05:13:51.323Z,0.92
2019-02-17T05:15:01.262Z,0.99
2019-02-17T05:16:10.940Z,0.88
2019-02-17T05:17:20.986Z,0.96
2019-02-17T05:18:30.914Z,0.96
2019-02-17T05:19:40.612Z,0.95
2019-02-17T05:20:50.539Z,0.99
2019-02-17T05:22:00.469Z,0.92
2019-02-17T05:23:10.398Z,0.85
2019-02-17T05:24:20.325Z,0.76
2019-02-17T05:25:30.254Z,0.88
2019-02-17T05:26:39.939Z,0.81
2019-02-17T05:27:49.860Z,0.78
2019-02-17T05:29:01.463Z,0.81
2019-02-17T05:30:11.504Z,0.86
2019-02-17T05:31:21.450Z,1
2019-02-17T05:32:31.380Z,0.94
2019-02-17T05:33:41.299Z,1.09
2019-02-17T05:34:51.223Z,1.14
2019-02-17T05:36:01.146Z,1.07
2019-02-17T05:37:11.074Z,1.07
2019-02-17T05:38:21.008Z,1.04
2019-02-17T05:39:30.937Z,1
2019-02-17T05:40:41.585Z,0.96
2019-02-17T05:41:51.513Z,0.95
2019-02-17T05:43:01.461Z,0.92
2019-02-17T05:44:11.397Z,0.95
2019-02-17T05:45:21.332Z,0.95
2019-02-17T05:46:31.350Z,0.86
2019-02-17T05:47:41.276Z,0.89
2019-02-17T05:48:51.198Z,0.67
2019-02-17T05:50:01.166Z,0.7
2019-02-17T05:51:11.140Z,0.66
2019-02-17T05:52:21.164Z,0.64
2019-02-17T05:53:31.108Z,0.58
2019-02-17T05:54:41.033Z,0.56
2019-02-17T05:55:50.989Z,0.55
2019-02-17T05:57:00.910Z,0.55
2019-02-17T05:58:10.938Z,0.49
2019-02-17T05:59:20.859Z,0.48
2019-02-17T06:00:30.793Z,0.47
2019-02-17T06:01:40.725Z,0.48
2019-02-17T06:02:50.649Z,0.48
2019-02-17T06:04:00.680Z,0.56
2019-02-17T06:05:10.368Z,0.55
2019-02-17T06:06:20.303Z,0.52
2019-02-17T06:07:30.222Z,0.49
2019-02-17T06:08:40.159Z,0.55
2019-02-17T06:09:50.175Z,0.47
2019-02-17T06:11:00.103Z,0.47
2019-02-17T06:12:10.045Z,0.52
2019-02-17T06:13:19.970Z,0.51
2019-02-17T06:14:29.935Z,0.45
2019-02-17T06:15:39.952Z,0.48
2019-02-17T06:16:49.873Z,0.45
2019-02-17T06:17:59.797Z,0.56
2019-02-17T06:19:09.719Z,0.52
2019-02-17T06:20:19.678Z,0.52
2019-02-17T06:21:29.604Z,0.47
2019-02-17T06:22:39.527Z,0.59
2019-02-17T06:23:49.457Z,0.52
2019-02-17T06:24:59.381Z,0.48
2019-02-17T06:26:09.330Z,0.51
2019-02-17T06:27:18.993Z,0.55
2019-02-17T06:28:28.917Z,0.56
2019-02-17T06:29:38.848Z,0.67
2019-02-17T06:30:48.773Z,0.76
2019-02-17T06:31:58.443Z,0.81
2019-02-17T06:33:08.462Z,0.81
2019-02-17T06:34:18.385Z,0.71
2019-02-17T06:35:28.310Z,0.7
2019-02-17T06:36:40.782Z,0.67
2019-02-17T06:37:50.888Z,0.61
2019-02-17T06:39:00.863Z,0.63
2019-02-17T06:40:10.781Z,0.59
2019-02-17T06:41:20.704Z,0.45
2019-02-17T06:42:30.646Z,0.48
2019-02-17T06:43:40.578Z,0.48
2019-02-17T06:44:50.608Z,0.48
2019-02-17T06:46:00.531Z,0.48
2019-02-17T06:47:10.472Z,0.45
2019-02-17T06:48:20.394Z,0.37
2019-02-17T06:49:30.310Z,0.42
2019-02-17T06:50:40.277Z,0.33
2019-02-17T06:51:50.292Z,0.44
2019-02-17T06:53:00.216Z,0.44
2019-02-17T06:54:10.137Z,0.42
2019-02-17T06:55:20.050Z,0.48
2019-02-17T06:56:29.994Z,0.61
2019-02-17T06:57:39.910Z,0.64
2019-02-17T06:58:49.830Z,0.45
2019-02-17T06:59:59.752Z,0.51
2019-02-17T07:01:09.671Z,0.48
2019-02-17T07:02:29.579Z,0.49
2019-02-17T07:03:39.629Z,0.49
2019-02-17T07:04:49.741Z,0.42
2019-02-17T07:06:01.535Z,0.45
2019-02-17T07:07:11.585Z,0.48
2019-02-17T07:08:21.661Z,0.33
2019-02-17T07:09:31.603Z,0.31
2019-02-17T07:10:41.273Z,0.44
2019-02-17T07:11:51.206Z,0.44
2019-02-17T07:13:02.212Z,0.44
2019-02-17T07:14:12.135Z,0.44
2019-02-17T07:15:21.799Z,0.4
2019-02-17T07:16:31.734Z,0.45
2019-02-17T07:17:41.665Z,0.36
2019-02-17T07:18:51.620Z,0.37
2019-02-17T07:20:01.641Z,0.33
2019-02-17T07:21:11.559Z,0.31
2019-02-17T07:22:21.485Z,0.29
2019-02-17T07:23:31.423Z,0.36
2019-02-17T07:24:41.348Z,0.3
2019-02-17T07:25:51.069Z,0.29
2019-02-17T07:27:00.992Z,0.33
2019-02-17T07:28:10.919Z,0.37
2019-02-17T07:29:21.704Z,0.37
2019-02-17T07:30:31.628Z,0.3
2019-02-17T07:31:41.656Z,0.34
2019-02-17T07:32:51.575Z,0.34
2019-02-17T07:34:01.505Z,0.3
2019-02-17T07:35:11.449Z,0.3
2019-02-17T07:36:22.173Z,0.26
2019-02-17T07:37:38.508Z,0.3
2019-02-17T07:38:48.442Z,0.31
2019-02-17T07:39:58.360Z,0.31
2019-02-17T07:41:08.287Z,0.34
2019-02-17T07:42:18.223Z,0.33
2019-02-17T07:43:28.150Z,0.29
2019-02-17T07:44:40.314Z,0.34
2019-02-17T07:45:50.395Z,0.31
2019-02-17T07:47:00.312Z,0.34
2019-02-17T07:48:10.238Z,0.33
2019-02-17T07:49:20.253Z,0.49
2019-02-17T07:50:30.176Z,0.4
2019-02-17T07:51:40.099Z,0.33
2019-02-17T07:52:50.039Z,0.45
2019-02-17T07:53:59.957Z,0.45
2019-02-17T07:55:09.974Z,0.44
2019-02-17T07:56:19.890Z,0.48
2019-02-17T07:57:29.808Z,0.45
2019-02-17T07:58:39.723Z,0.51
2019-02-17T07:59:49.647Z,0.51
2019-02-17T08:00:59.569Z,0.51
2019-02-17T08:02:09.521Z,0.49
2019-02-17T08:03:19.193Z,0.47
2019-02-17T08:04:29.110Z,0.52
2019-02-17T08:05:39.097Z,0.49
2019-02-17T08:06:49.067Z,0.48
2019-02-17T08:07:58.997Z,0.64
2019-02-17T08:09:08.909Z,0.59
2019-02-17T08:10:18.825Z,0.59
2019-02-17T08:11:28.502Z,0.58
2019-02-17T08:12:38.519Z,0.66
2019-02-17T08:13:48.438Z,0.73
2019-02-17T08:14:58.360Z,0.74
2019-02-17T08:16:08.282Z,0.74
2019-02-17T08:17:18.231Z,0.84
2019-02-17T08:18:28.258Z,0.77
2019-02-17T08:19:38.178Z,0.89
2019-02-17T08:20:48.104Z,0.95
2019-02-17T08:21:58.021Z,1.06
2019-02-17T08:23:07.941Z,1.13
2019-02-17T08:24:17.961Z,1.16
2019-02-17T08:25:27.887Z,1.14
2019-02-17T08:26:37.818Z,1.22
2019-02-17T08:27:47.749Z,1.25
2019-02-17T08:28:57.676Z,1.31
2019-02-17T08:30:07.656Z,1.39
2019-02-17T08:31:17.324Z,1.49
2019-02-17T08:32:27.239Z,1.5
2019-02-17T08:33:37.159Z,1.57
2019-02-17T08:34:47.074Z,1.6
2019-02-17T08:35:58.613Z,1.75
2019-02-17T08:37:08.534Z,1.7
2019-02-17T08:38:18.461Z,1.85
2019-02-17T08:39:28.402Z,1.89
2019-02-17T08:40:38.334Z,1.88
2019-02-17T08:41:48.307Z,2.04
2019-02-17T08:42:58.242Z,2.05
2019-02-17T08:44:08.197Z,1.98
2019-02-17T08:45:18.126Z,2.12
2019-02-17T08:46:28.042Z,2.15
2019-02-17T08:47:38.018Z,2.14
2019-02-17T08:48:48.004Z,2.12
2019-02-17T08:49:57.988Z,2.21
2019-02-17T08:51:07.944Z,2.26
2019-02-17T08:52:17.872Z,2.18
2019-02-17T08:53:27.894Z,2.25
2019-02-17T08:54:37.813Z,2.34
2019-02-17T08:55:47.730Z,2.32
2019-02-17T08:56:57.661Z,2.4
2019-02-17T08:58:07.599Z,2.34
2019-02-17T08:59:17.619Z,2.37
2019-02-17T09:00:27.544Z,2.41
2019-02-17T09:01:37.479Z,2.39
2019-02-17T09:02:48.154Z,2.4
2019-02-17T09:03:58.088Z,2.41
2019-02-17T09:05:08.115Z,2.39
2019-02-17T09:06:18.038Z,2.39
2019-02-17T09:07:27.969Z,2.43
2019-02-17T09:08:37.959Z,2.46
2019-02-17T09:09:47.878Z,2.52
2019-02-17T09:10:57.855Z,2.58
2019-02-17T09:12:07.778Z,2.7
2019-02-17T09:13:18.538Z,2.72
2019-02-17T09:14:28.643Z,2.62
2019-02-17T09:15:38.595Z,2.73
2019-02-17T09:16:48.574Z,2.69
2019-02-17T09:17:58.490Z,2.75
2019-02-17T09:19:08.410Z,2.73
2019-02-17T09:20:18.333Z,2.88
2019-02-17T09:21:28.252Z,2.85
2019-02-17T09:22:37.976Z,2.77
2019-02-17T09:23:47.907Z,2.68
2019-02-17T09:24:57.840Z,2.59
2019-02-17T09:26:07.681Z,2.43
2019-02-17T09:27:17.414Z,2.37
2019-02-17T09:28:27.396Z,2.43
2019-02-17T09:29:37.315Z,2.43
2019-02-17T09:30:47.236Z,2.5
2019-02-17T09:31:59.279Z,2.54
2019-02-17T09:33:09.307Z,2.55
2019-02-17T09:34:19.228Z,2.52
2019-02-17T09:35:29.148Z,2.55
2019-02-17T09:36:39.079Z,2.61
2019-02-17T09:37:49.013Z,2.57
2019-02-17T09:38:58.937Z,2.7
2019-02-17T09:40:08.865Z,2.61
2019-02-17T09:41:18.787Z,2.7
2019-02-17T09:42:28.708Z,2.65
2019-02-17T09:43:38.626Z,2.79
2019-02-17T09:44:50.878Z,2.79
2019-02-17T09:46:00.797Z,2.87
2019-02-17T09:47:10.721Z,2.91
2019-02-17T09:48:20.646Z,3
2019-02-17T09:49:30.567Z,2.94
2019-02-17T09:50:40.488Z,2.93
2019-02-17T09:51:50.423Z,3.01
2019-02-17T09:53:00.342Z,2.91
2019-02-17T09:54:10.302Z,2.64
2019-02-17T09:55:20.227Z,2.62
2019-02-17T09:56:30.159Z,2.62
2019-02-17T09:57:40.190Z,2.57
2019-02-17T09:58:50.120Z,2.59
2019-02-17T10:00:00.036Z,2.55
2019-02-17T10:01:09.966Z,2.58
2019-02-17T10:02:29.019Z,2.64
2019-02-17T10:03:39.038Z,2.69
2019-02-17T10:04:48.971Z,2.65
2019-02-17T10:05:58.896Z,2.65
2019-02-17T10:07:08.812Z,2.68
2019-02-17T10:08:18.733Z,2.69
2019-02-17T10:09:28.705Z,2.88
2019-02-17T10:10:38.625Z,2.87
2019-02-17T10:11:48.551Z,2.82
2019-02-17T10:12:58.477Z,2.91
2019-02-17T10:14:09.013Z,2.88
2019-02-17T10:15:19.051Z,2.94
2019-02-17T10:16:28.982Z,3.01
2019-02-17T10:17:38.902Z,3.18
2019-02-17T10:18:48.845Z,3.24
2019-02-17T10:19:58.764Z,3.27
2019-02-17T10:21:08.782Z,3.33
2019-02-17T10:22:18.456Z,3.24
2019-02-17T10:23:28.382Z,3.18
2019-02-17T10:24:38.303Z,3.26
2019-02-17T10:25:48.232Z,3.22
2019-02-17T10:26:58.161Z,3.12
2019-02-17T10:28:08.093Z,3.12
2019-02-17T10:29:18.022Z,3.03
2019-02-17T10:30:27.943Z,2.95
2019-02-17T10:31:37.862Z,2.94
2019-02-17T10:32:47.840Z,2.79
2019-02-17T10:33:57.772Z,2.7
2019-02-17T10:35:07.696Z,2.58
2019-02-17T10:36:17.623Z,2.61
2019-02-17T10:37:27.551Z,2.58
2019-02-17T10:38:37.575Z,2.65
2019-02-17T10:39:47.533Z,2.57
2019-02-17T10:40:57.450Z,2.65
2019-02-17T10:42:07.376Z,2.51
2019-02-17T10:43:17.305Z,2.58
2019-02-17T10:44:27.343Z,2.62
2019-02-17T10:45:37.267Z,2.65
2019-02-17T10:46:47.189Z,2.75
2019-02-17T10:47:57.119Z,2.91
2019-02-17T10:49:07.051Z,2.97
2019-02-17T10:50:17.134Z,2.94
2019-02-17T10:51:28.988Z,2.98
2019-02-17T10:52:38.916Z,2.9
2019-02-17T10:53:48.838Z,2.79
2019-02-17T10:54:58.775Z,2.7
2019-02-17T10:56:08.750Z,2.68
2019-02-17T10:57:18.676Z,2.68
2019-02-17T10:58:28.604Z,2.59
2019-02-17T10:59:38.522Z,2.54
2019-02-17T11:00:48.447Z,2.64
2019-02-17T11:01:58.471Z,2.58
2019-02-17T11:03:08.397Z,2.5
2019-02-17T11:04:18.325Z,2.57
2019-02-17T11:05:28.245Z,2.55
2019-02-17T11:06:38.171Z,2.54
2019-02-17T11:07:48.182Z,2.47
2019-02-17T11:08:58.127Z,2.58
2019-02-17T11:10:08.049Z,2.62
2019-02-17T11:11:17.975Z,2.64
2019-02-17T11:12:28.476Z,2.72
2019-02-17T11:13:38.206Z,2.75
2019-02-17T11:14:48.129Z,2.75
2019-02-17T11:15:58.053Z,2.7
2019-02-17T11:17:07.975Z,2.73
2019-02-17T11:18:17.917Z,2.73
2019-02-17T11:19:27.939Z,2.77
2019-02-17T11:20:37.898Z,2.77
2019-02-17T11:21:47.842Z,2.83
2019-02-17T11:22:57.972Z,2.75
2019-02-17T11:24:07.891Z,2.76
2019-02-17T11:25:17.917Z,2.88
2019-02-17T11:26:27.853Z,2.87
2019-02-17T11:27:37.803Z,2.94
2019-02-17T11:28:47.989Z,2.9
2019-02-17T11:29:57.941Z,2.93
2019-02-17T11:31:07.976Z,2.91
2019-02-17T11:32:17.899Z,2.87
2019-02-17T11:33:27.820Z,2.76
2019-02-17T11:34:37.742Z,2.76
2019-02-17T11:35:47.676Z,2.65
2019-02-17T11:36:57.719Z,2.72
2019-02-17T11:38:07.650Z,2.75
2019-02-17T11:39:17.572Z,2.64
2019-02-17T11:40:27.514Z,2.72
2019-02-17T11:41:37.436Z,2.77
2019-02-17T11:42:47.409Z,2.83
2019-02-17T11:43:57.326Z,2.88
2019-02-17T11:45:07.250Z,2.88
2019-02-17T11:46:17.204Z,2.8
2019-02-17T11:47:27.172Z,2.88
2019-02-17T11:48:37.193Z,2.97
2019-02-17T11:49:47.130Z,2.94
2019-02-17T11:50:57.052Z,3.01
2019-02-17T11:52:06.975Z,3.12
2019-02-17T11:53:16.908Z,3.19
2019-02-17T11:54:26.932Z,3.3
2019-02-17T11:55:36.859Z,3.37
2019-02-17T11:56:46.783Z,3.37
2019-02-17T11:57:56.742Z,3.55
2019-02-17T11:59:06.676Z,3.67
2019-02-17T12:00:16.654Z,3.74
2019-02-17T12:01:26.578Z,3.82
2019-02-17T12:02:36.516Z,3.91
2019-02-17T12:03:46.455Z,4.02
2019-02-17T12:04:56.378Z,4.16
2019-02-17T12:06:06.352Z,4.12
2019-02-17T12:07:16.300Z,4.24
2019-02-17T12:08:26.227Z,4.25
2019-02-17T12:09:36.150Z,4.27
2019-02-17T12:10:45.826Z,4.28
2019-02-17T12:11:55.850Z,4.34
2019-02-17T12:13:05.774Z,4.42
2019-02-17T12:14:15.707Z,4.49
2019-02-17T12:15:25.654Z,4.49
2019-02-17T12:16:42.042Z,4.56
2019-02-17T12:17:52.062Z,4.43
2019-02-17T12:19:04.445Z,3.96
2019-02-17T12:20:14.366Z,3.76
2019-02-17T12:21:24.291Z,3.64
2019-02-17T12:22:34.211Z,3.37
2019-02-17T12:23:44.184Z,3.31
2019-02-17T12:24:54.104Z,3.26
2019-02-17T12:26:04.027Z,3.13
2019-02-17T12:27:13.952Z,3.29
2019-02-17T12:28:23.881Z,3.41
2019-02-17T12:29:33.904Z,3.46
2019-02-17T12:30:45.683Z,3.55
2019-02-17T12:31:57.777Z,3.61
2019-02-17T12:33:17.647Z,3.7
2019-02-17T12:34:29.598Z,3.78
2019-02-17T12:35:39.641Z,3.78
2019-02-17T12:36:49.574Z,3.89
2019-02-17T12:37:59.510Z,3.92
2019-02-17T12:39:09.455Z,4.12
2019-02-17T12:40:20.483Z,4.46
2019-02-17T12:41:30.414Z,4.53
2019-02-17T12:42:40.336Z,4.57
2019-02-17T12:43:50.427Z,4.68
2019-02-17T12:45:01.974Z,4.67
2019-02-17T12:46:12.009Z,4.74
2019-02-17T12:47:21.933Z,4.9
2019-02-17T12:48:31.878Z,4.98
2019-02-17T12:49:41.802Z,5.16
2019-02-17T12:50:51.887Z,5.25
2019-02-17T12:52:01.953Z,5.46
2019-02-17T12:53:11.880Z,5.62
2019-02-17T12:54:31.196Z,6.05
2019-02-17T12:55:41.117Z,6.78
2019-02-17T12:56:51.066Z,7.15
2019-02-17T12:58:01.090Z,7.28
2019-02-17T12:59:11.040Z,7.29
2019-02-17T13:00:20.976Z,7.37
2019-02-17T13:01:30.902Z,7.31
2019-02-17T13:02:40.839Z,7.31
2019-02-17T13:03:50.867Z,7.25
2019-02-17T13:05:00.860Z,7.18
2019-02-17T13:06:10.793Z,7.11
2019-02-17T13:07:20.763Z,7.15
2019-02-17T13:08:30.718Z,7.13
2019-02-17T13:09:40.649Z,7.31
2019-02-17T13:10:50.324Z,7.43
2019-02-17T13:12:00.282Z,7.21
2019-02-17T13:13:10.210Z,7.33
2019-02-17T13:14:20.145Z,7.26
2019-02-17T13:15:30.168Z,7.26
2019-02-17T13:16:39.845Z,7.29
2019-02-17T13:17:49.769Z,7.26
2019-02-17T13:19:00.419Z,7.32
2019-02-17T13:20:10.342Z,7.31
2019-02-17T13:21:20.375Z,7.23
2019-02-17T13:22:30.052Z,7.28
2019-02-17T13:23:39.976Z,7.25
2019-02-17T13:24:49.900Z,7.25
2019-02-17T13:25:59.822Z,7.29
2019-02-17T13:27:09.847Z,7.25
2019-02-17T13:28:19.773Z,7.28
2019-02-17T13:29:29.705Z,7.26
2019-02-17T13:30:39.638Z,7.28
2019-02-17T13:31:49.572Z,7.4
2019-02-17T13:32:59.553Z,7.4
2019-02-17T13:34:09.478Z,7.37
2019-02-17T13:35:19.419Z,7.41
2019-02-17T13:36:29.348Z,7.39
2019-02-17T13:37:39.273Z,7.22
2019-02-17T13:38:49.309Z,6.74
2019-02-17T13:39:59.242Z,6.52
2019-02-17T13:41:09.179Z,6.34
2019-02-17T13:42:19.107Z,6.06
2019-02-17T13:43:29.031Z,5.81
2019-02-17T13:44:38.958Z,5.98
2019-02-17T13:45:49.739Z,5.8
2019-02-17T13:46:59.670Z,5.64
2019-02-17T13:48:09.599Z,5.54
2019-02-17T13:49:19.619Z,5.38
2019-02-17T13:50:29.591Z,5.33
2019-02-17T13:51:39.516Z,5.28
2019-02-17T13:52:49.448Z,5.08
2019-02-17T13:53:59.389Z,5.13
2019-02-17T13:55:09.336Z,5.05
2019-02-17T13:56:19.365Z,5.25
2019-02-17T13:57:29.306Z,5.33
2019-02-17T13:58:39.242Z,5.33
2019-02-17T13:59:49.164Z,5.25
2019-02-17T14:00:59.088Z,5.13
2019-02-17T14:02:09.118Z,5.05
2019-02-17T14:03:19.044Z,4.95
2019-02-17T14:04:28.978Z,5.02
2019-02-17T14:05:38.918Z,5.22
2019-02-17T14:06:48.842Z,5.2
2019-02-17T14:07:58.820Z,5.13
2019-02-17T14:09:08.755Z,5
2019-02-17T14:10:18.443Z,4.76
2019-02-17T14:11:28.370Z,4.76
2019-02-17T14:12:38.356Z,4.63
2019-02-17T14:13:48.398Z,4.5
2019-02-17T14:14:58.320Z,4.58
2019-02-17T14:16:08.253Z,4.58
2019-02-17T14:17:18.185Z,4.67
2019-02-17T14:18:28.111Z,4.49
2019-02-17T14:19:38.136Z,4.48
2019-02-17T14:20:48.069Z,4.32
2019-02-17T14:21:57.992Z,4.3
2019-02-17T14:23:07.924Z,4.16
2019-02-17T14:24:17.865Z,3.96
2019-02-17T14:25:27.796Z,3.82
2019-02-17T14:26:37.723Z,3.67
2019-02-17T14:27:47.654Z,3.63
2019-02-17T14:28:57.578Z,3.61
2019-02-17T14:30:07.502Z,3.46
2019-02-17T14:31:17.483Z,3.52
2019-02-17T14:32:27.418Z,3.46
2019-02-17T14:33:37.341Z,3.33
2019-02-17T14:34:47.260Z,3.36
2019-02-17T14:35:57.182Z,3.4
2019-02-17T14:37:07.160Z,3.34
2019-02-17T14:38:18.622Z,3.34
2019-02-17T14:39:28.545Z,3.45
2019-02-17T14:40:38.496Z,3.52
2019-02-17T14:41:48.420Z,3.49
2019-02-17T14:43:00.272Z,3.58
2019-02-17T14:44:10.195Z,3.64
2019-02-17T14:45:20.123Z,3.63
2019-02-17T14:46:30.059Z,3.64
2019-02-17T14:47:39.985Z,3.64
2019-02-17T14:48:49.956Z,3.7
2019-02-17T14:49:59.891Z,3.73
2019-02-17T14:51:09.562Z,3.84
2019-02-17T14:52:19.483Z,3.73
2019-02-17T14:53:29.415Z,3.84
2019-02-17T14:54:39.438Z,3.74
2019-02-17T14:55:49.364Z,3.96
2019-02-17T14:56:59.034Z,3.88
2019-02-17T14:58:10.594Z,3.96
2019-02-17T14:59:20.528Z,4.04
2019-02-17T15:00:30.550Z,4.09
2019-02-17T15:01:40.474Z,4.07
2019-02-17T15:02:52.141Z,4.21
2019-02-17T15:04:10.761Z,4.27
2019-02-17T15:05:20.447Z,4.24
2019-02-17T15:06:30.370Z,4.32
2019-02-17T15:07:40.296Z,4.3
2019-02-17T15:08:50.455Z,4.4
2019-02-17T15:10:00.383Z,4.42
2019-02-17T15:11:10.308Z,4.32
2019-02-17T15:12:20.333Z,4.36
2019-02-17T15:13:30.260Z,4.3
2019-02-17T15:14:40.180Z,4.31
2019-02-17T15:15:50.356Z,4.34
2019-02-17T15:17:00.283Z,4.43
2019-02-17T15:18:10.255Z,4.4
2019-02-17T15:19:20.184Z,4.43
2019-02-17T15:20:30.108Z,4.36
2019-02-17T15:21:40.042Z,4.36
2019-02-17T15:22:49.966Z,4.32
2019-02-17T15:23:59.688Z,4.32
2019-02-17T15:25:10.004Z,4.31
2019-02-17T15:26:19.927Z,4.42
2019-02-17T15:27:29.852Z,4.38
2019-02-17T15:28:39.534Z,4.36
2019-02-17T15:29:58.798Z,4.32
2019-02-17T15:31:08.481Z,4.32
2019-02-17T15:32:18.401Z,4.36
2019-02-17T15:33:28.327Z,4.4
2019-02-17T15:34:40.288Z,4.43
2019-02-17T15:35:50.214Z,4.42
2019-02-17T15:37:00.140Z,4.49